sensor_id;sensor_type;location;lat;lon;timestamp;P1;durP1;ratioP1;P2;durP2;ratioP2
58306;SDS011;44116;50.884;4.768;2022-09-09T00:02:32;4.7;;;1.2;;
58306;SDS011;44116;50.884;4.768;2022-09-09T00:08:41;5.5;;;1.5;;
58306;SDS011;44116;50.884;4.768;2022-09-09T00:10:34;5.1;;;1.2;;
58306;SDS011;44116;50.884;4.768;2022-09-09T00:12:36;3.8;;;1.1;;
58306;SDS011;44116;50.884;4.768;2022-09-09T00:14:38;4.2;;;1.3;;
58306;SDS011;44116;50.884;4.768;2022-09-09T00:16:36;5.0;;;1.4;;
58306;SDS011;44116;50.884;4.768;2022-09-09T00:18:44;3.7;;;0.9;;
58306;SDS011;44116;50.884;4.768;2022-09-09T00:20:34;2.6;;;1.0;;
58306;SDS011;44116;50.884;4.768;2022-09-09T00:22:32;4.4;;;1.2;;
58306;SDS011;44116;50.884;4.768;2022-09-09T00:24:35;5.2;;;1.0;;
58306;SDS011;44116;50.884;4.768;2022-09-09T00:26:35;3.5;;;1.2;;
58306;SDS011;44116;50.884;4.768;2022-09-09T00:28:31;4.4;;;1.6;;
58306;SDS011;44116;50.884;4.768;2022-09-09T00:30:32;3.9;;;1.5;;
58306;SDS011;44116;50.884;4.768;2022-09-09T00:32:30;4.9;;;1.3;;
58306;SDS011;44116;50.884;4.768;2022-09-09T00:34:29;3.1;;;1.1;;
58306;SDS011;44116;50.884;4.768;2022-09-09T00:36:29;4.6;;;1.3;;
58306;SDS011;44116;50.884;4.768;2022-09-09T00:38:34;4.6;;;1.4;;
58306;SDS011;44116;50.884;4.768;2022-09-09T00:40:33;5.2;;;1.3;;
58306;SDS011;44116;50.884;4.768;2022-09-09T00:42:36;2.5;;;1.1;;
58306;SDS011;44116;50.884;4.768;2022-09-09T00:44:31;4.0;;;1.2;;
58306;SDS011;44116;50.884;4.768;2022-09-09T00:46:41;2.8;;;1.0;;
58306;SDS011;44116;50.884;4.768;2022-09-09T00:48:34;8.5;;;1.5;;
58306;SDS011;44116;50.884;4.768;2022-09-09T00:52:36;5.2;;;1.1;;
58306;SDS011;44116;50.884;4.768;2022-09-09T00:54:36;5.2;;;1.2;;
58306;SDS011;44116;50.884;4.768;2022-09-09T00:56:33;4.9;;;1.5;;
58306;SDS011;44116;50.884;4.768;2022-09-09T00:58:27;4.5;;;1.1;;
58306;SDS011;44116;50.884;4.768;2022-09-09T01:00:28;5.2;;;1.3;;
58306;SDS011;44116;50.884;4.768;2022-09-09T01:02:28;5.1;;;1.4;;
58306;SDS011;44116;50.884;4.768;2022-09-09T01:04:31;6.0;;;1.3;;
58306;SDS011;44116;50.884;4.768;2022-09-09T01:06:29;5.0;;;1.4;;
58306;SDS011;44116;50.884;4.768;2022-09-09T01:08:39;6.7;;;1.5;;
58306;SDS011;44116;50.884;4.768;2022-09-09T01:10:31;7.1;;;1.9;;
58306;SDS011;44116;50.884;4.768;2022-09-09T01:12:32;3.7;;;1.2;;
58306;SDS011;44116;50.884;4.768;2022-09-09T01:16:25;3.2;;;1.4;;
58306;SDS011;44116;50.884;4.768;2022-09-09T01:18:27;6.0;;;1.6;;
58306;SDS011;44116;50.884;4.768;2022-09-09T01:22:34;5.3;;;1.5;;
58306;SDS011;44116;50.884;4.768;2022-09-09T01:24:28;6.0;;;1.6;;
58306;SDS011;44116;50.884;4.768;2022-09-09T01:26:25;4.5;;;1.5;;
58306;SDS011;44116;50.884;4.768;2022-09-09T01:28:26;3.9;;;1.1;;
58306;SDS011;44116;50.884;4.768;2022-09-09T01:30:24;7.6;;;1.9;;
58306;SDS011;44116;50.884;4.768;2022-09-09T01:32:38;5.8;;;1.4;;
58306;SDS011;44116;50.884;4.768;2022-09-09T01:34:25;7.0;;;1.6;;
58306;SDS011;44116;50.884;4.768;2022-09-09T01:36:28;5.2;;;1.8;;
58306;SDS011;44116;50.884;4.768;2022-09-09T01:38:23;6.1;;;1.4;;
58306;SDS011;44116;50.884;4.768;2022-09-09T01:40:23;5.7;;;1.7;;
58306;SDS011;44116;50.884;4.768;2022-09-09T01:44:22;8.3;;;1.6;;
58306;SDS011;44116;50.884;4.768;2022-09-09T01:46:22;6.0;;;1.8;;
58306;SDS011;44116;50.884;4.768;2022-09-09T01:48:22;5.7;;;1.5;;
58306;SDS011;44116;50.884;4.768;2022-09-09T01:50:21;5.0;;;1.7;;
58306;SDS011;44116;50.884;4.768;2022-09-09T01:52:21;4.5;;;1.6;;
58306;SDS011;44116;50.884;4.768;2022-09-09T01:54:22;6.5;;;1.7;;
58306;SDS011;44116;50.884;4.768;2022-09-09T02:00:20;8.1;;;1.8;;
58306;SDS011;44116;50.884;4.768;2022-09-09T02:02:26;6.8;;;2.0;;
58306;SDS011;44116;50.884;4.768;2022-09-09T02:04:30;4.9;;;1.7;;
58306;SDS011;44116;50.884;4.768;2022-09-09T02:06:27;8.5;;;2.0;;
58306;SDS011;44116;50.884;4.768;2022-09-09T02:08:24;5.7;;;1.8;;
58306;SDS011;44116;50.884;4.768;2022-09-09T02:10:22;7.9;;;1.9;;
58306;SDS011;44116;50.884;4.768;2022-09-09T02:12:23;5.1;;;1.6;;
58306;SDS011;44116;50.884;4.768;2022-09-09T02:14:23;7.9;;;2.1;;
58306;SDS011;44116;50.884;4.768;2022-09-09T02:16:23;6.8;;;1.8;;
58306;SDS011;44116;50.884;4.768;2022-09-09T02:18:24;7.1;;;2.0;;
58306;SDS011;44116;50.884;4.768;2022-09-09T02:20:19;8.5;;;1.8;;
58306;SDS011;44116;50.884;4.768;2022-09-09T02:22:20;6.5;;;1.6;;
58306;SDS011;44116;50.884;4.768;2022-09-09T02:24:17;8.3;;;2.0;;
58306;SDS011;44116;50.884;4.768;2022-09-09T02:26:19;6.5;;;1.7;;
58306;SDS011;44116;50.884;4.768;2022-09-09T02:28:19;8.1;;;2.3;;
58306;SDS011;44116;50.884;4.768;2022-09-09T02:30:18;6.3;;;1.9;;
58306;SDS011;44116;50.884;4.768;2022-09-09T02:34:18;7.1;;;1.7;;
58306;SDS011;44116;50.884;4.768;2022-09-09T02:36:17;9.4;;;2.0;;
58306;SDS011;44116;50.884;4.768;2022-09-09T02:38:17;6.5;;;1.7;;
58306;SDS011;44116;50.884;4.768;2022-09-09T02:40:16;5.7;;;1.5;;
58306;SDS011;44116;50.884;4.768;2022-09-09T02:42:16;6.0;;;1.4;;
58306;SDS011;44116;50.884;4.768;2022-09-09T02:44:17;7.7;;;1.9;;
58306;SDS011;44116;50.884;4.768;2022-09-09T02:48:21;9.1;;;2.1;;
58306;SDS011;44116;50.884;4.768;2022-09-09T02:50:19;7.3;;;1.4;;
58306;SDS011;44116;50.884;4.768;2022-09-09T02:52:18;7.8;;;1.8;;
58306;SDS011;44116;50.884;4.768;2022-09-09T02:56:16;7.6;;;1.9;;
58306;SDS011;44116;50.884;4.768;2022-09-09T02:58:16;10.1;;;1.8;;
58306;SDS011;44116;50.884;4.768;2022-09-09T03:00:14;7.7;;;1.9;;
58306;SDS011;44116;50.884;4.768;2022-09-09T03:02:14;6.1;;;1.7;;
58306;SDS011;44116;50.884;4.768;2022-09-09T03:04:14;6.6;;;1.8;;
58306;SDS011;44116;50.884;4.768;2022-09-09T03:06:14;7.4;;;1.6;;
58306;SDS011;44116;50.884;4.768;2022-09-09T03:08:13;5.4;;;1.4;;
58306;SDS011;44116;50.884;4.768;2022-09-09T03:10:13;5.4;;;1.7;;
58306;SDS011;44116;50.884;4.768;2022-09-09T03:16:12;6.8;;;1.6;;
58306;SDS011;44116;50.884;4.768;2022-09-09T03:18:12;6.0;;;2.0;;
58306;SDS011;44116;50.884;4.768;2022-09-09T03:20:12;6.9;;;1.6;;
58306;SDS011;44116;50.884;4.768;2022-09-09T03:22:12;7.8;;;1.8;;
58306;SDS011;44116;50.884;4.768;2022-09-09T03:26:12;6.1;;;1.7;;
58306;SDS011;44116;50.884;4.768;2022-09-09T03:28:11;9.9;;;2.1;;
58306;SDS011;44116;50.884;4.768;2022-09-09T03:30:11;7.7;;;1.9;;
58306;SDS011;44116;50.884;4.768;2022-09-09T03:32:11;8.5;;;2.0;;
58306;SDS011;44116;50.884;4.768;2022-09-09T03:34:10;6.9;;;1.8;;
58306;SDS011;44116;50.884;4.768;2022-09-09T03:36:11;7.1;;;1.5;;
58306;SDS011;44116;50.884;4.768;2022-09-09T03:38:10;6.0;;;1.7;;
58306;SDS011;44116;50.884;4.768;2022-09-09T03:40:10;6.2;;;1.6;;
58306;SDS011;44116;50.884;4.768;2022-09-09T03:42:12;4.5;;;1.5;;
58306;SDS011;44116;50.884;4.768;2022-09-09T03:44:09;7.3;;;1.7;;
58306;SDS011;44116;50.884;4.768;2022-09-09T03:48:09;7.4;;;1.8;;
58306;SDS011;44116;50.884;4.768;2022-09-09T03:50:09;7.5;;;1.9;;
58306;SDS011;44116;50.884;4.768;2022-09-09T03:52:09;7.7;;;1.5;;
58306;SDS011;44116;50.884;4.768;2022-09-09T03:54:08;7.3;;;1.7;;
58306;SDS011;44116;50.884;4.768;2022-09-09T03:56:08;8.9;;;1.8;;
58306;SDS011;44116;50.884;4.768;2022-09-09T04:00:08;6.4;;;2.0;;
58306;SDS011;44116;50.884;4.768;2022-09-09T04:02:07;8.3;;;1.4;;
58306;SDS011;44116;50.884;4.768;2022-09-09T04:04:08;8.0;;;1.9;;
58306;SDS011;44116;50.884;4.768;2022-09-09T04:06:08;9.2;;;1.6;;
58306;SDS011;44116;50.884;4.768;2022-09-09T04:08:07;9.4;;;1.9;;
58306;SDS011;44116;50.884;4.768;2022-09-09T04:10:07;8.2;;;2.0;;
58306;SDS011;44116;50.884;4.768;2022-09-09T04:12:06;7.3;;;2.1;;
58306;SDS011;44116;50.884;4.768;2022-09-09T04:14:06;9.5;;;1.7;;
58306;SDS011;44116;50.884;4.768;2022-09-09T04:18:06;5.0;;;1.5;;
58306;SDS011;44116;50.884;4.768;2022-09-09T04:20:06;8.5;;;1.7;;
58306;SDS011;44116;50.884;4.768;2022-09-09T04:22:06;8.3;;;1.9;;
58306;SDS011;44116;50.884;4.768;2022-09-09T04:24:06;8.9;;;1.8;;
58306;SDS011;44116;50.884;4.768;2022-09-09T04:26:05;8.4;;;2.0;;
58306;SDS011;44116;50.884;4.768;2022-09-09T04:28:05;8.7;;;1.8;;
58306;SDS011;44116;50.884;4.768;2022-09-09T04:30:05;7.3;;;2.2;;
58306;SDS011;44116;50.884;4.768;2022-09-09T04:32:04;6.9;;;1.8;;
58306;SDS011;44116;50.884;4.768;2022-09-09T04:34:04;10.2;;;2.4;;
58306;SDS011;44116;50.884;4.768;2022-09-09T04:36:04;7.6;;;2.0;;
58306;SDS011;44116;50.884;4.768;2022-09-09T04:38:04;7.4;;;1.9;;
58306;SDS011;44116;50.884;4.768;2022-09-09T04:40:04;7.3;;;2.0;;
58306;SDS011;44116;50.884;4.768;2022-09-09T04:44:03;9.4;;;2.2;;
58306;SDS011;44116;50.884;4.768;2022-09-09T04:46:03;9.7;;;1.9;;
58306;SDS011;44116;50.884;4.768;2022-09-09T04:48:03;10.6;;;2.4;;
58306;SDS011;44116;50.884;4.768;2022-09-09T04:50:03;5.8;;;1.8;;
58306;SDS011;44116;50.884;4.768;2022-09-09T04:52:02;9.0;;;2.3;;
58306;SDS011;44116;50.884;4.768;2022-09-09T04:54:02;11.8;;;2.2;;
58306;SDS011;44116;50.884;4.768;2022-09-09T04:56:04;7.3;;;1.9;;
58306;SDS011;44116;50.884;4.768;2022-09-09T04:58:03;6.9;;;2.0;;
58306;SDS011;44116;50.884;4.768;2022-09-09T05:00:03;12.5;;;2.2;;
58306;SDS011;44116;50.884;4.768;2022-09-09T05:02:01;6.6;;;2.3;;
58306;SDS011;44116;50.884;4.768;2022-09-09T05:06:02;9.6;;;2.6;;
58306;SDS011;44116;50.884;4.768;2022-09-09T05:08:01;7.9;;;2.1;;
58306;SDS011;44116;50.884;4.768;2022-09-09T05:10:00;8.1;;;2.4;;
58306;SDS011;44116;50.884;4.768;2022-09-09T05:12:00;8.1;;;1.9;;
58306;SDS011;44116;50.884;4.768;2022-09-09T05:14:00;8.8;;;2.1;;
58306;SDS011;44116;50.884;4.768;2022-09-09T05:16:00;7.2;;;2.3;;
58306;SDS011;44116;50.884;4.768;2022-09-09T05:18:00;9.6;;;2.4;;
58306;SDS011;44116;50.884;4.768;2022-09-09T05:19:59;7.2;;;2.0;;
58306;SDS011;44116;50.884;4.768;2022-09-09T05:21:59;8.5;;;2.5;;
58306;SDS011;44116;50.884;4.768;2022-09-09T05:25:59;9.6;;;2.8;;
58306;SDS011;44116;50.884;4.768;2022-09-09T05:27:58;8.3;;;2.3;;
58306;SDS011;44116;50.884;4.768;2022-09-09T05:31:58;12.1;;;2.5;;
58306;SDS011;44116;50.884;4.768;2022-09-09T05:33:58;8.9;;;2.3;;
58306;SDS011;44116;50.884;4.768;2022-09-09T05:35:58;10.5;;;2.5;;
58306;SDS011;44116;50.884;4.768;2022-09-09T05:37:59;11.8;;;2.6;;
58306;SDS011;44116;50.884;4.768;2022-09-09T05:39:57;8.8;;;2.3;;
58306;SDS011;44116;50.884;4.768;2022-09-09T05:41:57;9.8;;;2.4;;
58306;SDS011;44116;50.884;4.768;2022-09-09T05:46:01;7.3;;;2.6;;
58306;SDS011;44116;50.884;4.768;2022-09-09T05:47:56;10.0;;;2.4;;
58306;SDS011;44116;50.884;4.768;2022-09-09T05:49:56;7.4;;;2.3;;
58306;SDS011;44116;50.884;4.768;2022-09-09T05:51:56;10.7;;;1.9;;
58306;SDS011;44116;50.884;4.768;2022-09-09T05:53:56;7.9;;;2.2;;
58306;SDS011;44116;50.884;4.768;2022-09-09T05:55:59;9.0;;;2.3;;
58306;SDS011;44116;50.884;4.768;2022-09-09T05:57:55;12.1;;;2.7;;
58306;SDS011;44116;50.884;4.768;2022-09-09T05:59:55;10.9;;;2.3;;
58306;SDS011;44116;50.884;4.768;2022-09-09T06:01:55;11.0;;;2.5;;
58306;SDS011;44116;50.884;4.768;2022-09-09T06:03:55;8.9;;;2.0;;
58306;SDS011;44116;50.884;4.768;2022-09-09T06:09:54;8.7;;;2.4;;
58306;SDS011;44116;50.884;4.768;2022-09-09T06:11:54;9.2;;;2.3;;
58306;SDS011;44116;50.884;4.768;2022-09-09T06:13:54;9.3;;;2.0;;
58306;SDS011;44116;50.884;4.768;2022-09-09T06:15:54;7.9;;;2.2;;
58306;SDS011;44116;50.884;4.768;2022-09-09T06:19:53;11.6;;;2.5;;
58306;SDS011;44116;50.884;4.768;2022-09-09T06:23:53;9.4;;;2.1;;
58306;SDS011;44116;50.884;4.768;2022-09-09T06:26:02;9.6;;;2.4;;
58306;SDS011;44116;50.884;4.768;2022-09-09T06:27:53;10.1;;;1.9;;
58306;SDS011;44116;50.884;4.768;2022-09-09T06:29:52;12.4;;;2.5;;
58306;SDS011;44116;50.884;4.768;2022-09-09T06:31:52;9.5;;;2.3;;
58306;SDS011;44116;50.884;4.768;2022-09-09T06:33:53;9.2;;;2.1;;
58306;SDS011;44116;50.884;4.768;2022-09-09T06:35:52;7.4;;;2.2;;
58306;SDS011;44116;50.884;4.768;2022-09-09T06:37:52;7.9;;;1.9;;
58306;SDS011;44116;50.884;4.768;2022-09-09T06:39:52;11.7;;;2.1;;
58306;SDS011;44116;50.884;4.768;2022-09-09T06:43:52;14.4;;;2.5;;
58306;SDS011;44116;50.884;4.768;2022-09-09T06:45:53;9.2;;;2.0;;
58306;SDS011;44116;50.884;4.768;2022-09-09T06:47:54;11.6;;;2.4;;
58306;SDS011;44116;50.884;4.768;2022-09-09T06:51:51;12.7;;;2.5;;
58306;SDS011;44116;50.884;4.768;2022-09-09T06:53:52;10.9;;;2.3;;
58306;SDS011;44116;50.884;4.768;2022-09-09T06:55:50;8.2;;;2.1;;
58306;SDS011;44116;50.884;4.768;2022-09-09T06:57:50;6.8;;;1.7;;
58306;SDS011;44116;50.884;4.768;2022-09-09T06:59:50;9.5;;;2.0;;
58306;SDS011;44116;50.884;4.768;2022-09-09T07:01:50;10.0;;;2.1;;
58306;SDS011;44116;50.884;4.768;2022-09-09T07:03:52;9.6;;;2.2;;
58306;SDS011;44116;50.884;4.768;2022-09-09T07:05:57;8.3;;;1.9;;
58306;SDS011;44116;50.884;4.768;2022-09-09T07:07:50;10.8;;;2.2;;
58306;SDS011;44116;50.884;4.768;2022-09-09T07:09:49;12.2;;;2.0;;
58306;SDS011;44116;50.884;4.768;2022-09-09T07:11:51;9.6;;;2.4;;
58306;SDS011;44116;50.884;4.768;2022-09-09T07:13:49;12.9;;;2.1;;
58306;SDS011;44116;50.884;4.768;2022-09-09T07:15:49;10.5;;;2.3;;
58306;SDS011;44116;50.884;4.768;2022-09-09T07:17:49;9.2;;;1.9;;
58306;SDS011;44116;50.884;4.768;2022-09-09T07:19:48;5.7;;;1.8;;
58306;SDS011;44116;50.884;4.768;2022-09-09T07:21:48;7.5;;;2.1;;
58306;SDS011;44116;50.884;4.768;2022-09-09T07:23:48;11.2;;;2.4;;
58306;SDS011;44116;50.884;4.768;2022-09-09T07:25:48;13.8;;;2.0;;
58306;SDS011;44116;50.884;4.768;2022-09-09T07:27:48;7.7;;;2.2;;
58306;SDS011;44116;50.884;4.768;2022-09-09T07:29:48;8.9;;;2.0;;
58306;SDS011;44116;50.884;4.768;2022-09-09T07:31:48;7.8;;;1.9;;
58306;SDS011;44116;50.884;4.768;2022-09-09T07:33:48;9.4;;;2.7;;
58306;SDS011;44116;50.884;4.768;2022-09-09T07:35:48;9.1;;;1.9;;
58306;SDS011;44116;50.884;4.768;2022-09-09T07:37:47;9.8;;;2.0;;
58306;SDS011;44116;50.884;4.768;2022-09-09T07:39:47;10.0;;;2.1;;
58306;SDS011;44116;50.884;4.768;2022-09-09T07:41:48;11.4;;;2.2;;
58306;SDS011;44116;50.884;4.768;2022-09-09T07:43:47;12.8;;;2.3;;
58306;SDS011;44116;50.884;4.768;2022-09-09T07:45:46;10.0;;;2.0;;
58306;SDS011;44116;50.884;4.768;2022-09-09T07:47:46;8.3;;;2.2;;
58306;SDS011;44116;50.884;4.768;2022-09-09T07:49:46;12.6;;;2.1;;
58306;SDS011;44116;50.884;4.768;2022-09-09T07:51:47;8.5;;;2.0;;
58306;SDS011;44116;50.884;4.768;2022-09-09T07:53:46;11.5;;;1.9;;
58306;SDS011;44116;50.884;4.768;2022-09-09T07:55:45;7.9;;;1.7;;
58306;SDS011;44116;50.884;4.768;2022-09-09T07:57:45;9.1;;;2.1;;
58306;SDS011;44116;50.884;4.768;2022-09-09T08:01:46;13.3;;;2.3;;
58306;SDS011;44116;50.884;4.768;2022-09-09T08:03:45;8.6;;;1.9;;
58306;SDS011;44116;50.884;4.768;2022-09-09T08:07:44;9.8;;;2.4;;
58306;SDS011;44116;50.884;4.768;2022-09-09T08:09:44;10.5;;;2.3;;
58306;SDS011;44116;50.884;4.768;2022-09-09T08:13:44;12.1;;;2.5;;
58306;SDS011;44116;50.884;4.768;2022-09-09T08:15:44;10.4;;;2.2;;
58306;SDS011;44116;50.884;4.768;2022-09-09T08:17:43;9.5;;;2.0;;
58306;SDS011;44116;50.884;4.768;2022-09-09T08:21:43;10.0;;;1.9;;
58306;SDS011;44116;50.884;4.768;2022-09-09T08:23:45;11.8;;;2.0;;
58306;SDS011;44116;50.884;4.768;2022-09-09T08:25:43;8.3;;;1.9;;
58306;SDS011;44116;50.884;4.768;2022-09-09T08:27:42;11.5;;;2.5;;
58306;SDS011;44116;50.884;4.768;2022-09-09T08:29:42;7.8;;;1.8;;
58306;SDS011;44116;50.884;4.768;2022-09-09T08:31:45;10.6;;;2.0;;
58306;SDS011;44116;50.884;4.768;2022-09-09T08:33:43;8.8;;;2.4;;
58306;SDS011;44116;50.884;4.768;2022-09-09T08:35:50;8.1;;;1.8;;
58306;SDS011;44116;50.884;4.768;2022-09-09T08:37:42;10.9;;;1.9;;
58306;SDS011;44116;50.884;4.768;2022-09-09T08:41:53;10.3;;;2.1;;
58306;SDS011;44116;50.884;4.768;2022-09-09T08:43:44;6.7;;;1.8;;
58306;SDS011;44116;50.884;4.768;2022-09-09T08:45:50;8.9;;;2.0;;
58306;SDS011;44116;50.884;4.768;2022-09-09T08:47:51;8.0;;;1.9;;
58306;SDS011;44116;50.884;4.768;2022-09-09T08:49:55;11.9;;;2.0;;
58306;SDS011;44116;50.884;4.768;2022-09-09T08:51:41;9.1;;;2.1;;
58306;SDS011;44116;50.884;4.768;2022-09-09T08:53:44;7.7;;;2.0;;
58306;SDS011;44116;50.884;4.768;2022-09-09T08:55:43;8.8;;;2.4;;
58306;SDS011;44116;50.884;4.768;2022-09-09T08:57:41;9.2;;;1.7;;
58306;SDS011;44116;50.884;4.768;2022-09-09T09:03:45;8.7;;;2.1;;
58306;SDS011;44116;50.884;4.768;2022-09-09T09:05:46;8.4;;;1.9;;
58306;SDS011;44116;50.884;4.768;2022-09-09T09:07:52;9.4;;;1.8;;
58306;SDS011;44116;50.884;4.768;2022-09-09T09:09:46;8.5;;;2.3;;
58306;SDS011;44116;50.884;4.768;2022-09-09T09:11:42;9.3;;;2.2;;
58306;SDS011;44116;50.884;4.768;2022-09-09T09:13:42;7.5;;;1.8;;
58306;SDS011;44116;50.884;4.768;2022-09-09T09:15:41;9.3;;;2.1;;
58306;SDS011;44116;50.884;4.768;2022-09-09T09:17:39;8.1;;;2.2;;
58306;SDS011;44116;50.884;4.768;2022-09-09T09:19:40;7.4;;;2.1;;
58306;SDS011;44116;50.884;4.768;2022-09-09T09:21:42;7.9;;;2.0;;
58306;SDS011;44116;50.884;4.768;2022-09-09T09:23:43;10.4;;;2.1;;
58306;SDS011;44116;50.884;4.768;2022-09-09T09:25:41;8.3;;;2.2;;
58306;SDS011;44116;50.884;4.768;2022-09-09T09:27:40;9.6;;;2.3;;
58306;SDS011;44116;50.884;4.768;2022-09-09T09:31:38;6.5;;;1.9;;
58306;SDS011;44116;50.884;4.768;2022-09-09T09:35:38;7.7;;;2.2;;
58306;SDS011;44116;50.884;4.768;2022-09-09T09:39:37;9.2;;;1.9;;
58306;SDS011;44116;50.884;4.768;2022-09-09T09:41:39;6.7;;;2.1;;
58306;SDS011;44116;50.884;4.768;2022-09-09T09:43:40;5.5;;;1.7;;
58306;SDS011;44116;50.884;4.768;2022-09-09T09:45:41;7.7;;;2.3;;
58306;SDS011;44116;50.884;4.768;2022-09-09T09:47:37;6.4;;;2.0;;
58306;SDS011;44116;50.884;4.768;2022-09-09T09:49:37;8.6;;;2.2;;
58306;SDS011;44116;50.884;4.768;2022-09-09T09:51:37;8.9;;;2.4;;
58306;SDS011;44116;50.884;4.768;2022-09-09T09:53:38;9.3;;;2.2;;
58306;SDS011;44116;50.884;4.768;2022-09-09T09:55:48;8.0;;;2.1;;
58306;SDS011;44116;50.884;4.768;2022-09-09T09:57:36;9.2;;;2.2;;
58306;SDS011;44116;50.884;4.768;2022-09-09T09:59:37;8.4;;;2.3;;
58306;SDS011;44116;50.884;4.768;2022-09-09T10:01:36;10.4;;;2.4;;
58306;SDS011;44116;50.884;4.768;2022-09-09T10:03:36;7.4;;;2.2;;
58306;SDS011;44116;50.884;4.768;2022-09-09T10:07:35;6.3;;;2.1;;
58306;SDS011;44116;50.884;4.768;2022-09-09T10:09:35;7.7;;;1.9;;
58306;SDS011;44116;50.884;4.768;2022-09-09T10:11:43;6.7;;;1.6;;
58306;SDS011;44116;50.884;4.768;2022-09-09T10:13:45;7.3;;;2.1;;
58306;SDS011;44116;50.884;4.768;2022-09-09T10:15:41;7.9;;;2.3;;
58306;SDS011;44116;50.884;4.768;2022-09-09T10:17:53;6.7;;;2.0;;
58306;SDS011;44116;50.884;4.768;2022-09-09T10:21:48;7.0;;;2.1;;
58306;SDS011;44116;50.884;4.768;2022-09-09T10:23:45;8.1;;;1.9;;
58306;SDS011;44116;50.884;4.768;2022-09-09T10:27:42;9.7;;;2.1;;
58306;SDS011;44116;50.884;4.768;2022-09-09T10:29:47;7.7;;;2.3;;
58306;SDS011;44116;50.884;4.768;2022-09-09T10:31:40;8.1;;;2.2;;
58306;SDS011;44116;50.884;4.768;2022-09-09T10:35:39;6.4;;;2.3;;
58306;SDS011;44116;50.884;4.768;2022-09-09T10:37:44;9.9;;;2.5;;
58306;SDS011;44116;50.884;4.768;2022-09-09T10:39:36;7.0;;;2.1;;
58306;SDS011;44116;50.884;4.768;2022-09-09T10:45:41;6.1;;;2.3;;
58306;SDS011;44116;50.884;4.768;2022-09-09T10:47:45;8.8;;;2.1;;
58306;SDS011;44116;50.884;4.768;2022-09-09T10:49:47;9.0;;;2.5;;
58306;SDS011;44116;50.884;4.768;2022-09-09T10:51:36;9.6;;;2.4;;
58306;SDS011;44116;50.884;4.768;2022-09-09T10:53:36;8.1;;;2.0;;
58306;SDS011;44116;50.884;4.768;2022-09-09T10:55:37;7.8;;;1.9;;
58306;SDS011;44116;50.884;4.768;2022-09-09T10:57:37;6.7;;;2.2;;
58306;SDS011;44116;50.884;4.768;2022-09-09T10:59:36;8.2;;;2.5;;
58306;SDS011;44116;50.884;4.768;2022-09-09T11:01:39;9.5;;;2.4;;
58306;SDS011;44116;50.884;4.768;2022-09-09T11:03:32;9.3;;;2.5;;
58306;SDS011;44116;50.884;4.768;2022-09-09T11:05:36;10.0;;;2.3;;
58306;SDS011;44116;50.884;4.768;2022-09-09T11:07:39;9.5;;;2.2;;
58306;SDS011;44116;50.884;4.768;2022-09-09T11:09:36;12.8;;;2.4;;
58306;SDS011;44116;50.884;4.768;2022-09-09T11:13:38;6.6;;;2.1;;
58306;SDS011;44116;50.884;4.768;2022-09-09T11:15:36;11.0;;;2.3;;
58306;SDS011;44116;50.884;4.768;2022-09-09T11:17:38;6.7;;;2.1;;
58306;SDS011;44116;50.884;4.768;2022-09-09T11:19:34;9.0;;;2.6;;
58306;SDS011;44116;50.884;4.768;2022-09-09T11:21:34;7.4;;;2.2;;
58306;SDS011;44116;50.884;4.768;2022-09-09T11:23:39;6.7;;;2.1;;
58306;SDS011;44116;50.884;4.768;2022-09-09T11:25:32;8.0;;;2.3;;
58306;SDS011;44116;50.884;4.768;2022-09-09T11:27:37;7.8;;;2.2;;
58306;SDS011;44116;50.884;4.768;2022-09-09T11:29:44;6.2;;;1.9;;
58306;SDS011;44116;50.884;4.768;2022-09-09T11:31:43;8.8;;;2.1;;
58306;SDS011;44116;50.884;4.768;2022-09-09T11:33:45;6.6;;;2.0;;
58306;SDS011;44116;50.884;4.768;2022-09-09T11:35:38;8.2;;;2.2;;
58306;SDS011;44116;50.884;4.768;2022-09-09T11:37:44;7.5;;;2.3;;
58306;SDS011;44116;50.884;4.768;2022-09-09T11:39:44;8.0;;;2.0;;
58306;SDS011;44116;50.884;4.768;2022-09-09T11:41:34;8.0;;;1.9;;
58306;SDS011;44116;50.884;4.768;2022-09-09T11:43:31;8.5;;;2.0;;
58306;SDS011;44116;50.884;4.768;2022-09-09T11:45:30;6.7;;;1.5;;
58306;SDS011;44116;50.884;4.768;2022-09-09T11:47:30;7.9;;;2.1;;
58306;SDS011;44116;50.884;4.768;2022-09-09T11:49:40;6.6;;;1.9;;
58306;SDS011;44116;50.884;4.768;2022-09-09T11:51:31;7.4;;;1.7;;
58306;SDS011;44116;50.884;4.768;2022-09-09T11:53:29;8.6;;;1.9;;
58306;SDS011;44116;50.884;4.768;2022-09-09T11:55:30;8.9;;;2.1;;
58306;SDS011;44116;50.884;4.768;2022-09-09T11:57:33;9.5;;;1.7;;
58306;SDS011;44116;50.884;4.768;2022-09-09T11:59:30;7.3;;;1.9;;
58306;SDS011;44116;50.884;4.768;2022-09-09T12:01:34;9.3;;;2.0;;
58306;SDS011;44116;50.884;4.768;2022-09-09T12:05:36;5.3;;;1.7;;
58306;SDS011;44116;50.884;4.768;2022-09-09T12:07:32;6.4;;;1.8;;
58306;SDS011;44116;50.884;4.768;2022-09-09T12:11:29;6.1;;;1.7;;
58306;SDS011;44116;50.884;4.768;2022-09-09T12:15:28;6.1;;;1.8;;
58306;SDS011;44116;50.884;4.768;2022-09-09T12:17:29;6.7;;;1.6;;
58306;SDS011;44116;50.884;4.768;2022-09-09T12:19:28;5.2;;;1.4;;
58306;SDS011;44116;50.884;4.768;2022-09-09T12:21:34;5.4;;;1.7;;
58306;SDS011;44116;50.884;4.768;2022-09-09T12:25:34;8.0;;;1.8;;
58306;SDS011;44116;50.884;4.768;2022-09-09T12:27:31;7.1;;;1.5;;
58306;SDS011;44116;50.884;4.768;2022-09-09T12:29:33;6.8;;;1.6;;
58306;SDS011;44116;50.884;4.768;2022-09-09T12:31:34;8.0;;;2.0;;
58306;SDS011;44116;50.884;4.768;2022-09-09T12:33:34;8.6;;;1.7;;
58306;SDS011;44116;50.884;4.768;2022-09-09T12:35:28;5.6;;;1.6;;
58306;SDS011;44116;50.884;4.768;2022-09-09T12:37:31;7.5;;;1.7;;
58306;SDS011;44116;50.884;4.768;2022-09-09T12:39:32;6.2;;;1.5;;
58306;SDS011;44116;50.884;4.768;2022-09-09T12:41:27;4.7;;;1.4;;
58306;SDS011;44116;50.884;4.768;2022-09-09T12:43:28;6.3;;;1.7;;
58306;SDS011;44116;50.884;4.768;2022-09-09T12:47:36;5.0;;;1.6;;
58306;SDS011;44116;50.884;4.768;2022-09-09T12:51:29;6.3;;;1.4;;
58306;SDS011;44116;50.884;4.768;2022-09-09T12:53:29;5.0;;;1.6;;
58306;SDS011;44116;50.884;4.768;2022-09-09T12:59:35;5.4;;;1.4;;
58306;SDS011;44116;50.884;4.768;2022-09-09T13:01:28;5.7;;;1.3;;
58306;SDS011;44116;50.884;4.768;2022-09-09T13:03:26;6.6;;;1.6;;
58306;SDS011;44116;50.884;4.768;2022-09-09T13:07:26;6.4;;;1.4;;
58306;SDS011;44116;50.884;4.768;2022-09-09T13:09:25;4.8;;;1.8;;
58306;SDS011;44116;50.884;4.768;2022-09-09T13:11:30;6.1;;;1.5;;
58306;SDS011;44116;50.884;4.768;2022-09-09T13:17:26;6.5;;;1.7;;
58306;SDS011;44116;50.884;4.768;2022-09-09T13:19:26;6.3;;;1.6;;
58306;SDS011;44116;50.884;4.768;2022-09-09T13:21:34;6.4;;;1.8;;
58306;SDS011;44116;50.884;4.768;2022-09-09T13:23:27;4.1;;;1.2;;
58306;SDS011;44116;50.884;4.768;2022-09-09T13:25:27;4.4;;;1.3;;
58306;SDS011;44116;50.884;4.768;2022-09-09T13:27:28;4.0;;;1.1;;
58306;SDS011;44116;50.884;4.768;2022-09-09T13:29:25;5.6;;;1.3;;
58306;SDS011;44116;50.884;4.768;2022-09-09T13:31:28;3.6;;;1.2;;
58306;SDS011;44116;50.884;4.768;2022-09-09T13:33:29;7.1;;;1.5;;
58306;SDS011;44116;50.884;4.768;2022-09-09T13:35:25;5.4;;;1.6;;
58306;SDS011;44116;50.884;4.768;2022-09-09T13:37:33;5.6;;;1.5;;
58306;SDS011;44116;50.884;4.768;2022-09-09T13:39:25;5.8;;;1.2;;
58306;SDS011;44116;50.884;4.768;2022-09-09T13:41:29;4.5;;;1.1;;
58306;SDS011;44116;50.884;4.768;2022-09-09T13:43:26;5.1;;;1.4;;
58306;SDS011;44116;50.884;4.768;2022-09-09T13:45:25;5.7;;;1.3;;
58306;SDS011;44116;50.884;4.768;2022-09-09T13:47:29;5.8;;;1.4;;
58306;SDS011;44116;50.884;4.768;2022-09-09T13:49:28;4.9;;;1.2;;
58306;SDS011;44116;50.884;4.768;2022-09-09T13:51:32;4.4;;;1.1;;
58306;SDS011;44116;50.884;4.768;2022-09-09T13:53:24;6.4;;;1.4;;
58306;SDS011;44116;50.884;4.768;2022-09-09T13:55:26;4.5;;;1.6;;
58306;SDS011;44116;50.884;4.768;2022-09-09T13:57:25;4.6;;;1.2;;
58306;SDS011;44116;50.884;4.768;2022-09-09T13:59:24;4.2;;;1.1;;
58306;SDS011;44116;50.884;4.768;2022-09-09T14:01:24;3.4;;;1.2;;
58306;SDS011;44116;50.884;4.768;2022-09-09T14:03:23;3.9;;;1.3;;
58306;SDS011;44116;50.884;4.768;2022-09-09T14:05:24;4.2;;;1.4;;
58306;SDS011;44116;50.884;4.768;2022-09-09T14:07:23;3.7;;;1.2;;
58306;SDS011;44116;50.884;4.768;2022-09-09T14:09:23;4.8;;;1.4;;
58306;SDS011;44116;50.884;4.768;2022-09-09T14:11:23;5.4;;;1.2;;
58306;SDS011;44116;50.884;4.768;2022-09-09T14:13:23;4.2;;;1.0;;
58306;SDS011;44116;50.884;4.768;2022-09-09T14:15:23;4.1;;;1.3;;